Map

Track Data

SID SEASON NUMBER BASIN SUBBASIN NAME ISO_TIME NATURE LAT LON WMO_WIND WMO_PRES WMO_AGENCY TRACK_TYPE DIST2LAND LANDFALL IFLAG USA_AGENCY USA_ATCF_ID USA_LAT USA_LON USA_RECORD USA_STATUS USA_WIND USA_PRES USA_SSHS USA_R34_NE USA_R34_SE USA_R34_SW USA_R34_NW USA_R50_NE USA_R50_SE USA_R50_SW USA_R50_NW USA_R64_NE USA_R64_SE USA_R64_SW USA_R64_NW USA_POCI USA_ROCI USA_RMW USA_EYE TOKYO_LAT TOKYO_LON TOKYO_GRADE TOKYO_WIND TOKYO_PRES TOKYO_R50_DIR TOKYO_R50_LONG TOKYO_R50_SHORT TOKYO_R30_DIR TOKYO_R30_LONG TOKYO_R30_SHORT TOKYO_LAND CMA_LAT CMA_LON CMA_CAT CMA_WIND CMA_PRES HKO_LAT HKO_LON HKO_CAT HKO_WIND HKO_PRES NEWDELHI_LAT NEWDELHI_LON NEWDELHI_GRADE NEWDELHI_WIND NEWDELHI_PRES NEWDELHI_CI NEWDELHI_DP NEWDELHI_POCI REUNION_LAT REUNION_LON REUNION_TYPE REUNION_WIND REUNION_PRES REUNION_TNUM REUNION_CI REUNION_RMW REUNION_R34_NE REUNION_R34_SE REUNION_R34_SW REUNION_R34_NW REUNION_R50_NE REUNION_R50_SE REUNION_R50_SW REUNION_R50_NW REUNION_R64_NE REUNION_R64_SE REUNION_R64_SW REUNION_R64_NW BOM_LAT BOM_LON BOM_TYPE BOM_WIND BOM_PRES BOM_TNUM BOM_CI BOM_RMW BOM_R34_NE BOM_R34_SE BOM_R34_SW BOM_R34_NW BOM_R50_NE BOM_R50_SE BOM_R50_SW BOM_R50_NW BOM_R64_NE BOM_R64_SE BOM_R64_SW BOM_R64_NW BOM_ROCI BOM_POCI BOM_EYE BOM_POS_METHOD BOM_PRES_METHOD NADI_LAT NADI_LON NADI_CAT NADI_WIND NADI_PRES WELLINGTON_LAT WELLINGTON_LON WELLINGTON_WIND WELLINGTON_PRES DS824_LAT DS824_LON DS824_STAGE DS824_WIND DS824_PRES TD9636_LAT TD9636_LON TD9636_STAGE TD9636_WIND TD9636_PRES TD9635_LAT TD9635_LON TD9635_WIND TD9635_PRES TD9635_ROCI NEUMANN_LAT NEUMANN_LON NEUMANN_CLASS NEUMANN_WIND NEUMANN_PRES MLC_LAT MLC_LON MLC_CLASS MLC_WIND MLC_PRES USA_GUST BOM_GUST BOM_GUST_PER REUNION_GUST REUNION_GUST_PER USA_SEAHGT USA_SEARAD_NE USA_SEARAD_SE USA_SEARAD_SW USA_SEARAD_NW STORM_SPEED STORM_DIR
1937130N17115 1937 17 WP MM NOT_NAMED 1937-05-10 10:00:00 NR 17.0000 115.200 main 492 436 __________O___ -1 17.0000 115.200 2 19 68
1937130N17115 1937 17 WP MM NOT_NAMED 1937-05-10 12:00:00 NR 17.2357 115.801 main 436 360 __________P___ -1 17.2357 115.801 2 18 68
1937130N17115 1937 17 WP MM NOT_NAMED 1937-05-10 15:00:00 NR 17.5740 116.673 main 360 298 __________P___ -1 17.5740 116.673 2 17 68
1937130N17115 1937 17 WP MM NOT_NAMED 1937-05-10 18:00:00 NR 17.8780 117.464 main 298 239 __________P___ -1 17.8780 117.464 2 15 68
1937130N17115 1937 17 WP MM NOT_NAMED 1937-05-10 21:00:00 NR 18.1303 118.120 main 239 222 __________P___ -1 18.1303 118.120 2 13 68
1937130N17115 1937 17 WP MM NOT_NAMED 1937-05-10 22:00:00 NR 18.2000 118.300 main 222 196 __________O___ -1 18.2000 118.300 2 10 68
1937130N17115 1937 17 WP MM NOT_NAMED 1937-05-11 00:00:00 NR 18.3165 118.596 main 196 172 __________P___ -1 18.3165 118.596 2 8 67
1937130N17115 1937 17 WP MM NOT_NAMED 1937-05-11 03:00:00 NR 18.4484 118.913 main 172 154 __________P___ -1 18.4484 118.913 2 6 65
1937130N17115 1937 17 WP MM NOT_NAMED 1937-05-11 06:00:00 NR 18.5537 119.136 main 158 138 __________P___ -1 18.5537 119.136 2 4 62
1937130N17115 1937 17 WP MM NOT_NAMED 1937-05-11 09:00:00 NR 18.6598 119.330 main 141 130 __________P___ -1 18.6598 119.330 2 4 60
1937130N17115 1937 17 WP MM NOT_NAMED 1937-05-11 10:00:00 NR 18.7000 119.400 main 130 114 __________O___ -1 18.7000 119.400 2 5 58
1937130N17115 1937 17 WP MM NOT_NAMED 1937-05-11 12:00:00 NR 18.7968 119.563 main 114 101 __________P___ -1 18.7968 119.563 2 6 57
1937130N17115 1937 17 WP MM NOT_NAMED 1937-05-11 15:00:00 NR 18.9547 119.814 main 107 92 __________P___ -1 18.9547 119.814 2 6 57
1937130N17115 1937 17 WP MM NOT_NAMED 1937-05-11 18:00:00 NR 19.1308 120.101 main 92 84 __________P___ -1 19.1308 120.101 2 7 58
1937130N17115 1937 17 WP MM NOT_NAMED 1937-05-11 21:00:00 NR 19.3287 120.459 main 84 84 __________P___ -1 19.3287 120.459 2 8 60
1937130N17115 1937 17 WP MM NOT_NAMED 1937-05-11 22:00:00 NR 19.4000 120.600 main 91 90 __________O___ -1 19.4000 120.600 2 10 64
1937130N17115 1937 17 WP MM NOT_NAMED 1937-05-12 00:00:00 NR 19.5502 120.942 main 111 112 __________P___ -1 19.5502 120.942 2 12 66
1937130N17115 1937 17 WP MM NOT_NAMED 1937-05-12 03:00:00 NR 19.7940 121.530 main 145 146 __________P___ -1 19.7940 121.530 2 13 66
1937130N17115 1937 17 WP MM NOT_NAMED 1937-05-12 06:00:00 NR 20.0514 122.166 main 190 190 __________P___ -1 20.0514 122.166 2 13 66
1937130N17115 1937 17 WP MM NOT_NAMED 1937-05-12 09:00:00 NR 20.3132 122.799 main 218 218 __________P___ -1 20.3132 122.799 2 13 66
1937130N17115 1937 17 WP MM NOT_NAMED 1937-05-12 10:00:00 NR 20.4000 123.000 main 235 235 __________O___ -1 20.4000 123.000 2 11 63
1937130N17115 1937 17 WP MM NOT_NAMED 1937-05-12 12:00:00 NR 20.5683 123.341 main 267 271 __________P___ -1 20.5683 123.341 2 11 61
1937130N17115 1937 17 WP MM NOT_NAMED 1937-05-12 15:00:00 NR 20.8214 123.827 main 311 316 __________P___ -1 20.8214 123.827 2 10 61
1937130N17115 1937 17 WP MM NOT_NAMED 1937-05-12 18:00:00 NR 21.0728 124.309 main 362 362 __________P___ -1 21.0728 124.309 2 11 62
1937130N17115 1937 17 WP MM NOT_NAMED 1937-05-12 21:00:00 NR 21.3194 124.819 main 403 403 __________P___ -1 21.3194 124.819 2 11 63
1937130N17115 1937 17 WP MM NOT_NAMED 1937-05-12 22:00:00 NR 21.4000 125.000 main 416 416 __________O___ -1 21.4000 125.000 2 12 67
1937130N17115 1937 17 WP MM NOT_NAMED 1937-05-13 00:00:00 NR 21.5591 125.430 main 444 453 __________P___ -1 21.5591 125.430 2 13 69
1937130N17115 1937 17 WP MM NOT_NAMED 1937-05-13 03:00:00 NR 21.7912 126.114 main 504 514 __________P___ -1 21.7912 126.114 2 13 70
1937130N17115 1937 17 WP MM NOT_NAMED 1937-05-13 06:00:00 NR 22.0148 126.795 main 567 567 __________P___ -1 22.0148 126.795 2 13 70
1937130N17115 1937 17 WP MM NOT_NAMED 1937-05-13 09:00:00 NR 22.2300 127.416 main 617 617 __________P___ -1 22.2300 127.416 2 12 69
1937130N17115 1937 17 WP MM NOT_NAMED 1937-05-13 10:00:00 NR 22.3000 127.600 main 631 631 __________O___ -1 22.3000 127.600 2 10 66
1937130N17115 1937 17 WP MM NOT_NAMED 1937-05-13 12:00:00 NR 22.4377 127.925 main 655 660 __________P___ -1 22.4377 127.925 2 9 63
1937130N17115 1937 17 WP MM NOT_NAMED 1937-05-13 15:00:00 NR 22.6398 128.322 main 685 682 __________P___ -1 22.6398 128.322 2 8 59
1937130N17115 1937 17 WP MM NOT_NAMED 1937-05-13 18:00:00 NR 22.8383 128.640 main 707 714 __________P___ -1 22.8383 128.640 2 7 54
1937130N17115 1937 17 WP MM NOT_NAMED 1937-05-13 21:00:00 NR 23.0347 128.913 main 731 728 __________P___ -1 23.0347 128.913 2 6 52
1937130N17115 1937 17 WP MM NOT_NAMED 1937-05-13 22:00:00 NR 23.1000 129.000 main 738 __________O___ -1 23.1000 129.000 7 6 51

Digital Typhoon Data and Search

About IBTrACS Database

This database is a web-friendly format of International Best Track Archive for Climate Stewardship (IBTrACS), a global best track data archive curated by NOAA dating back to 1842.

Updated: 2021-12-01